createdAt,value
2022-11-08T00:00:09.205Z,1.20
2022-11-08T00:02:41.905Z,1.23
2022-11-08T00:05:29.800Z,1.30
2022-11-08T00:08:18.290Z,1.23
2022-11-08T00:11:06.240Z,1.30
2022-11-08T00:13:56.014Z,1.40
2022-11-08T00:16:27.018Z,1.10
2022-11-08T00:18:58.284Z,1.20
2022-11-08T00:21:29.296Z,0.93
2022-11-08T00:24:00.351Z,1.00
2022-11-08T00:26:32.379Z,1.23
2022-11-08T00:29:05.841Z,1.43
2022-11-08T00:31:37.666Z,1.10
2022-11-08T00:34:08.627Z,1.03
2022-11-08T00:36:40.244Z,1.30
2022-11-08T00:39:13.160Z,1.20
2022-11-08T00:41:46.604Z,0.80
2022-11-08T00:44:24.037Z,1.20
2022-11-08T00:47:06.781Z,1.20
2022-11-08T00:49:37.853Z,1.30
2022-11-08T00:52:12.496Z,1.27
2022-11-08T00:54:44.694Z,1.63
2022-11-08T00:57:15.681Z,1.57
2022-11-08T00:59:49.409Z,1.80
2022-11-08T01:02:21.077Z,1.63
2022-11-08T01:04:52.118Z,1.90
2022-11-08T01:07:25.898Z,1.53
2022-11-08T01:09:57.441Z,1.50
2022-11-08T01:12:29.190Z,2.00
2022-11-08T01:15:02.339Z,2.33
2022-11-08T01:17:33.399Z,2.60
2022-11-08T01:20:08.899Z,2.57
2022-11-08T01:22:50.913Z,3.00
2022-11-08T01:25:23.523Z,2.50
2022-11-08T01:27:55.202Z,2.50
2022-11-08T01:30:28.524Z,2.73
2022-11-08T01:32:59.508Z,2.33
2022-11-08T01:35:34.407Z,2.37
2022-11-08T01:38:07.400Z,2.43
2022-11-08T01:40:45.371Z,2.20
2022-11-08T01:43:40.441Z,2.23
2022-11-08T01:46:43.640Z,2.80
2022-11-08T01:49:35.715Z,2.50
2022-11-08T01:52:34.906Z,2.10
2022-11-08T01:55:17.787Z,2.17
2022-11-08T01:57:58.518Z,2.40
2022-11-08T02:00:29.944Z,2.20
2022-11-08T02:03:07.287Z,2.33
2022-11-08T02:05:38.499Z,2.10
2022-11-08T02:08:13.960Z,2.07
2022-11-08T02:10:47.673Z,1.90
2022-11-08T02:13:24.311Z,2.63
2022-11-08T02:15:56.385Z,2.20
2022-11-08T02:18:33.076Z,1.80
2022-11-08T02:21:12.936Z,1.33
2022-11-08T02:23:50.638Z,1.77
2022-11-08T02:26:26.939Z,1.40
2022-11-08T02:28:58.852Z,1.37
2022-11-08T02:31:29.674Z,1.20
2022-11-08T02:34:01.349Z,1.00
2022-11-08T02:36:32.837Z,1.00
2022-11-08T02:39:06.723Z,0.80
2022-11-08T02:41:38.211Z,0.90
2022-11-08T02:44:09.649Z,0.90
2022-11-08T02:46:40.685Z,1.03
2022-11-08T02:49:11.750Z,1.13
2022-11-08T02:51:46.325Z,0.90
2022-11-08T02:54:19.499Z,1.20
2022-11-08T02:56:52.712Z,1.00
2022-11-08T02:59:26.562Z,1.10
2022-11-08T03:01:57.706Z,1.23
2022-11-08T03:04:28.953Z,1.43
2022-11-08T03:07:00.024Z,1.17
2022-11-08T03:09:34.022Z,1.50
2022-11-08T03:12:06.866Z,1.60
2022-11-08T03:14:40.378Z,1.60
2022-11-08T03:17:12.129Z,1.90
2022-11-08T03:19:43.234Z,1.50
2022-11-08T03:22:14.283Z,1.63
2022-11-08T03:24:48.856Z,2.00
2022-11-08T03:27:20.242Z,1.90
2022-11-08T03:29:51.379Z,2.10
2022-11-08T03:32:23.001Z,1.70
2022-11-08T03:34:54.046Z,2.23
2022-11-08T03:37:25.231Z,2.03
2022-11-08T03:40:00.541Z,2.20
2022-11-08T03:42:34.997Z,1.60
2022-11-08T03:45:06.490Z,2.40
2022-11-08T03:47:46.144Z,2.70
2022-11-08T03:50:35.763Z,2.40
2022-11-08T03:53:06.902Z,2.53
2022-11-08T03:55:48.549Z,2.70
2022-11-08T03:58:20.486Z,3.23
2022-11-08T04:00:54.672Z,5.50
2022-11-08T04:03:27.819Z,3.80
2022-11-08T04:05:59.526Z,3.70
2022-11-08T04:08:31.977Z,2.90
2022-11-08T04:11:32.305Z,3.63
2022-11-08T04:14:20.191Z,3.77
2022-11-08T04:16:52.003Z,3.47
2022-11-08T04:19:42.666Z,3.10
2022-11-08T04:22:16.191Z,2.60
2022-11-08T04:24:47.197Z,2.60
2022-11-08T04:27:21.132Z,3.83
2022-11-08T04:29:52.171Z,2.57
2022-11-08T04:32:23.283Z,2.93
2022-11-08T04:34:54.959Z,2.57
2022-11-08T04:37:26.592Z,2.53
2022-11-08T04:39:58.159Z,3.10
2022-11-08T04:42:31.188Z,10.10
2022-11-08T04:45:02.207Z,3.40
2022-11-08T04:47:40.163Z,3.20
2022-11-08T04:50:14.615Z,3.07
2022-11-08T04:52:45.819Z,3.17
2022-11-08T04:55:17.335Z,3.17
2022-11-08T04:57:50.998Z,2.70
2022-11-08T05:00:23.336Z,3.20
2022-11-08T05:02:54.563Z,2.70
2022-11-08T05:05:26.430Z,2.63
2022-11-08T05:07:58.153Z,2.33
2022-11-08T05:10:29.760Z,2.77
2022-11-08T05:13:02.974Z,1.97
2022-11-08T05:15:34.013Z,1.50
2022-11-08T05:18:11.544Z,2.00
2022-11-08T05:21:12.717Z,1.97
2022-11-08T05:23:44.307Z,1.77
2022-11-08T05:26:15.924Z,2.00
2022-11-08T05:28:49.492Z,1.90
2022-11-08T05:31:21.406Z,1.63
2022-11-08T05:33:53.883Z,1.67
2022-11-08T05:36:25.411Z,1.70
2022-11-08T05:38:57.162Z,1.47
2022-11-08T05:41:29.221Z,2.17
2022-11-08T05:44:04.282Z,1.77
2022-11-08T05:46:35.304Z,2.57
2022-11-08T05:49:07.287Z,1.80
2022-11-08T05:51:38.935Z,2.10
2022-11-08T05:54:10.846Z,2.40
2022-11-08T05:56:42.739Z,2.07
2022-11-08T05:59:16.374Z,2.27
2022-11-08T06:01:47.471Z,2.07
2022-11-08T06:04:20.113Z,1.97
2022-11-08T06:06:53.979Z,1.40
2022-11-08T06:09:27.968Z,1.60
2022-11-08T06:11:59.139Z,1.30
2022-11-08T06:14:32.958Z,1.17
2022-11-08T06:17:04.050Z,1.17
2022-11-08T06:19:36.213Z,1.37
2022-11-08T06:22:07.259Z,1.27
2022-11-08T06:24:38.831Z,1.70
2022-11-08T06:27:09.929Z,2.23
2022-11-08T06:29:45.442Z,2.23
2022-11-08T06:32:16.486Z,2.10
2022-11-08T06:34:51.065Z,1.87
2022-11-08T06:37:21.984Z,2.10
2022-11-08T06:39:53.754Z,2.00
2022-11-08T06:42:25.655Z,2.03
2022-11-08T06:44:58.829Z,2.10
2022-11-08T06:47:30.493Z,2.20
2022-11-08T06:50:01.900Z,1.87
2022-11-08T06:52:32.921Z,2.20
2022-11-08T06:55:03.985Z,1.80
2022-11-08T06:57:36.210Z,2.27
2022-11-08T07:00:11.970Z,2.30
2022-11-08T07:02:43.277Z,2.40
2022-11-08T07:05:15.379Z,2.80
2022-11-08T07:07:52.799Z,2.40
2022-11-08T07:10:28.206Z,2.47
2022-11-08T07:13:03.015Z,2.50
2022-11-08T07:15:38.484Z,2.40
2022-11-08T07:18:11.968Z,2.20
2022-11-08T07:20:46.332Z,2.13
2022-11-08T07:23:17.449Z,2.90
2022-11-08T07:25:49.292Z,2.80
2022-11-08T07:28:23.004Z,3.33
2022-11-08T07:31:02.007Z,2.90
2022-11-08T07:33:33.099Z,3.23
2022-11-08T07:36:04.660Z,3.10
2022-11-08T07:38:35.772Z,3.10
2022-11-08T07:41:07.598Z,2.93
2022-11-08T07:43:39.614Z,3.07
2022-11-08T07:46:17.031Z,2.70
2022-11-08T07:48:48.056Z,3.20
2022-11-08T07:51:19.163Z,3.60
2022-11-08T07:53:50.181Z,3.57
2022-11-08T07:56:21.974Z,3.77
2022-11-08T07:58:54.676Z,3.00
2022-11-08T08:01:28.955Z,3.10
2022-11-08T08:04:01.778Z,2.70
2022-11-08T08:06:32.795Z,2.10
2022-11-08T08:09:05.171Z,2.27
2022-11-08T08:11:36.339Z,2.10
2022-11-08T08:14:07.203Z,2.03
2022-11-08T08:16:40.248Z,1.93
2022-11-08T08:19:12.246Z,2.10
2022-11-08T08:21:44.135Z,2.47
2022-11-08T08:24:15.194Z,2.40
2022-11-08T08:26:46.703Z,2.80
2022-11-08T08:29:17.579Z,2.70
2022-11-08T08:31:51.084Z,3.10
2022-11-08T08:34:22.428Z,3.33
2022-11-08T08:36:54.333Z,3.37
2022-11-08T08:39:26.022Z,3.50
2022-11-08T08:41:56.851Z,3.90
2022-11-08T08:44:30.633Z,4.20
2022-11-08T08:47:04.591Z,4.27
2022-11-08T08:49:36.764Z,3.97
2022-11-08T08:52:08.214Z,4.43
2022-11-08T08:54:39.912Z,3.20
2022-11-08T08:57:11.239Z,3.53
2022-11-08T09:02:37.380Z,3.03
2022-11-08T09:05:12.371Z,3.47
2022-11-08T09:07:44.961Z,3.37
2022-11-08T09:10:15.982Z,2.90
2022-11-08T09:12:47.054Z,3.37
2022-11-08T09:15:18.115Z,3.13
2022-11-08T09:17:51.193Z,3.50
2022-11-08T09:20:23.375Z,3.43
2022-11-08T09:22:54.444Z,3.37
2022-11-08T09:25:25.477Z,2.90
2022-11-08T09:27:59.560Z,3.20
2022-11-08T09:30:31.445Z,3.03
2022-11-08T09:33:06.356Z,2.73
2022-11-08T09:35:38.434Z,2.97
2022-11-08T09:38:10.673Z,2.90
2022-11-08T09:40:47.053Z,2.07
2022-11-08T09:43:38.534Z,2.00
2022-11-08T09:46:14.024Z,2.00
2022-11-08T09:48:49.507Z,2.23
2022-11-08T09:51:23.339Z,2.33
2022-11-08T09:53:59.388Z,1.93
2022-11-08T09:56:34.265Z,2.23
2022-11-08T09:59:09.084Z,1.87
2022-11-08T10:01:42.378Z,2.00
2022-11-08T10:04:19.086Z,2.30
2022-11-08T10:07:06.060Z,1.80
2022-11-08T10:09:57.193Z,2.30
2022-11-08T10:12:33.941Z,2.37
2022-11-08T10:15:20.752Z,2.23
2022-11-08T10:18:17.870Z,2.10
2022-11-08T10:21:06.123Z,2.23
2022-11-08T10:23:46.267Z,2.10
2022-11-08T10:26:25.693Z,2.37
2022-11-08T10:29:03.776Z,2.40
2022-11-08T10:31:38.057Z,2.60
2022-11-08T10:34:18.616Z,2.83
2022-11-08T10:36:54.670Z,2.20
2022-11-08T10:39:32.759Z,2.50
2022-11-08T10:42:09.313Z,1.97
2022-11-08T10:44:41.448Z,1.90
2022-11-08T10:47:21.148Z,2.57
2022-11-08T10:49:53.297Z,2.13
2022-11-08T10:52:35.383Z,2.47
2022-11-08T10:55:10.755Z,1.87
2022-11-08T10:57:46.050Z,2.30
2022-11-08T11:00:28.368Z,2.00
2022-11-08T11:03:01.286Z,2.13
2022-11-08T11:05:36.585Z,2.40
2022-11-08T11:08:20.003Z,2.33
2022-11-08T11:10:52.617Z,2.27
2022-11-08T11:16:06.643Z,1.90
2022-11-08T11:18:42.508Z,1.90
2022-11-08T11:21:17.390Z,2.10
2022-11-08T11:23:52.533Z,2.20
2022-11-08T11:26:35.686Z,2.00
2022-11-08T11:29:24.270Z,2.27
2022-11-08T11:31:57.887Z,2.17
2022-11-08T11:34:47.741Z,2.17
2022-11-08T11:37:30.771Z,2.90
2022-11-08T11:40:29.784Z,2.97
2022-11-08T11:43:09.440Z,2.27
2022-11-08T11:45:47.822Z,3.00
2022-11-08T11:48:22.082Z,2.57
2022-11-08T11:50:54.668Z,2.60
2022-11-08T11:53:32.308Z,2.50
2022-11-08T11:56:42.497Z,2.53
2022-11-08T11:59:49.271Z,2.30
2022-11-08T12:02:58.859Z,2.20
2022-11-08T12:05:39.854Z,1.50
2022-11-08T12:08:23.555Z,1.73
2022-11-08T12:11:21.776Z,2.03
2022-11-08T12:14:11.802Z,2.13
2022-11-08T12:16:53.933Z,1.77
2022-11-08T12:19:38.395Z,1.87
2022-11-08T12:22:28.438Z,1.90
2022-11-08T12:25:08.494Z,1.97
2022-11-08T12:27:58.491Z,1.80
2022-11-08T12:30:48.552Z,2.00
2022-11-08T12:33:37.626Z,1.73
2022-11-08T12:36:23.846Z,1.80
2022-11-08T12:39:08.589Z,1.70
2022-11-08T12:41:46.842Z,1.90
2022-11-08T12:44:36.720Z,2.27
2022-11-08T12:47:24.170Z,2.03
2022-11-08T12:50:08.041Z,1.93
2022-11-08T12:52:50.911Z,1.90
2022-11-08T12:55:30.101Z,2.20
2022-11-08T12:58:09.302Z,2.30
2022-11-08T13:00:44.559Z,2.70
2022-11-08T13:03:33.476Z,1.90
2022-11-08T13:06:12.011Z,2.00
2022-11-08T13:08:50.097Z,2.27
2022-11-08T13:11:30.321Z,2.60
2022-11-08T13:14:04.295Z,2.17
2022-11-08T13:16:42.487Z,1.87
2022-11-08T13:19:31.371Z,2.87
2022-11-08T13:22:02.480Z,1.80
2022-11-08T13:24:44.484Z,2.10
2022-11-08T13:27:29.499Z,2.10
2022-11-08T13:30:05.862Z,2.20
2022-11-08T13:32:54.468Z,2.10
2022-11-08T13:35:37.957Z,2.43
2022-11-08T13:38:24.901Z,2.50
2022-11-08T13:41:20.355Z,2.23
2022-11-08T13:43:52.662Z,2.80
2022-11-08T13:46:56.942Z,2.30
2022-11-08T13:49:30.209Z,2.10
2022-11-08T13:52:39.831Z,2.07
2022-11-08T13:55:47.011Z,2.10
2022-11-08T13:58:44.614Z,1.70
2022-11-08T14:01:55.055Z,1.80
2022-11-08T14:04:30.092Z,2.23
2022-11-08T14:07:08.292Z,2.40
2022-11-08T14:09:49.719Z,1.93
2022-11-08T14:12:33.487Z,2.10
2022-11-08T14:15:15.910Z,2.13
2022-11-08T14:17:53.027Z,1.93
2022-11-08T14:20:36.893Z,2.20
2022-11-08T14:23:26.985Z,2.40
2022-11-08T14:26:00.707Z,1.87
2022-11-08T14:28:36.209Z,2.23
2022-11-08T14:31:25.250Z,2.03
2022-11-08T14:33:57.196Z,2.00
2022-11-08T14:36:30.220Z,2.90
2022-11-08T14:39:09.352Z,1.63
2022-11-08T14:41:41.418Z,2.20
2022-11-08T14:44:20.417Z,2.00
2022-11-08T14:46:52.374Z,1.80
2022-11-08T14:49:28.199Z,2.20
2022-11-08T14:52:21.445Z,1.90
2022-11-08T14:55:02.738Z,1.73
2022-11-08T14:57:37.273Z,2.67
2022-11-08T15:00:19.932Z,2.00
2022-11-08T15:02:53.953Z,1.87
2022-11-08T15:05:35.199Z,2.27
2022-11-08T15:08:10.429Z,1.60
2022-11-08T15:10:42.645Z,2.00
2022-11-08T15:13:14.631Z,2.17
2022-11-08T15:15:56.478Z,2.23
2022-11-08T15:18:34.052Z,2.10
2022-11-08T15:21:08.215Z,2.20
2022-11-08T15:23:50.334Z,2.37
2022-11-08T15:26:28.394Z,1.80
2022-11-08T15:29:06.494Z,2.33
2022-11-08T15:31:42.288Z,1.90
2022-11-08T15:34:30.854Z,2.07
2022-11-08T15:37:01.952Z,2.10
2022-11-08T15:39:39.717Z,2.00
2022-11-08T15:42:17.026Z,2.07
2022-11-08T15:45:08.362Z,2.13
2022-11-08T15:47:47.584Z,1.80
2022-11-08T15:50:23.814Z,1.80
2022-11-08T15:52:56.972Z,2.23
2022-11-08T15:55:32.346Z,1.77
2022-11-08T15:58:03.860Z,2.43
2022-11-08T16:00:39.389Z,1.67
2022-11-08T16:03:13.005Z,1.83
2022-11-08T16:05:44.175Z,1.60
2022-11-08T16:08:19.942Z,1.80
2022-11-08T16:10:53.649Z,1.80
2022-11-08T16:13:28.518Z,1.80
2022-11-08T16:16:01.201Z,1.77
2022-11-08T16:18:36.999Z,2.10
2022-11-08T16:21:08.527Z,1.60
2022-11-08T16:23:40.163Z,2.00
2022-11-08T16:26:17.795Z,1.73
2022-11-08T16:28:51.603Z,1.90
2022-11-08T16:31:23.249Z,1.90
2022-11-08T16:33:59.436Z,1.80
2022-11-08T16:36:30.801Z,1.80
2022-11-08T16:39:05.945Z,1.80
2022-11-08T16:41:42.610Z,2.10
2022-11-08T16:44:16.057Z,1.93
2022-11-08T16:46:51.666Z,1.67
2022-11-08T16:49:37.282Z,1.70
2022-11-08T16:52:08.890Z,2.23
2022-11-08T16:54:44.044Z,1.73
2022-11-08T17:00:08.484Z,1.83
2022-11-08T17:02:41.054Z,2.07
2022-11-08T17:05:23.106Z,2.20
2022-11-08T17:07:59.415Z,1.83
2022-11-08T17:10:34.193Z,2.30
2022-11-08T17:13:05.939Z,2.10
2022-11-08T17:15:36.966Z,2.10
2022-11-08T17:18:09.730Z,1.87
2022-11-08T17:20:45.399Z,1.97
2022-11-08T17:23:20.397Z,1.80
2022-11-08T17:25:52.018Z,1.80
2022-11-08T17:28:23.057Z,2.23
2022-11-08T17:30:54.690Z,2.37
2022-11-08T17:33:25.725Z,1.80
2022-11-08T17:35:58.738Z,1.93
2022-11-08T17:38:31.835Z,2.13
2022-11-08T17:41:21.297Z,2.17
2022-11-08T17:43:52.386Z,2.37
2022-11-08T17:46:35.260Z,2.20
2022-11-08T17:49:06.523Z,1.70
2022-11-08T17:51:42.387Z,2.07
2022-11-08T17:54:24.173Z,1.83
2022-11-08T17:56:58.321Z,2.20
2022-11-08T17:59:29.844Z,1.50
2022-11-08T18:02:00.888Z,2.20
2022-11-08T18:04:43.442Z,2.07
2022-11-08T18:07:21.659Z,1.87
2022-11-08T18:09:53.405Z,1.60
2022-11-08T18:12:30.414Z,1.80
2022-11-08T18:15:13.342Z,2.10
2022-11-08T18:17:44.387Z,1.80
2022-11-08T18:20:21.355Z,2.20
2022-11-08T18:22:57.694Z,2.23
2022-11-08T18:25:28.786Z,1.97
2022-11-08T18:27:59.941Z,1.73
2022-11-08T18:30:36.603Z,2.10
2022-11-08T18:33:07.846Z,1.80
2022-11-08T18:35:42.201Z,2.07
2022-11-08T18:38:18.102Z,2.10
2022-11-08T18:40:56.159Z,2.30
2022-11-08T18:43:27.402Z,1.97
2022-11-08T18:45:58.442Z,1.97
2022-11-08T18:48:31.227Z,1.77
2022-11-08T18:51:09.876Z,1.60
2022-11-08T18:53:44.001Z,1.50
2022-11-08T18:56:15.987Z,1.90
2022-11-08T18:58:48.156Z,2.10
2022-11-08T19:01:22.541Z,1.43
2022-11-08T19:04:01.019Z,1.80
2022-11-08T19:06:36.821Z,1.53
2022-11-08T19:09:10.831Z,1.90
2022-11-08T19:11:42.009Z,2.13
2022-11-08T19:14:13.588Z,1.67
2022-11-08T19:16:46.369Z,1.90
2022-11-08T19:19:20.962Z,1.80
2022-11-08T19:21:54.195Z,1.70
2022-11-08T19:24:28.104Z,1.40
2022-11-08T19:27:02.655Z,1.63
2022-11-08T19:29:42.341Z,1.80
2022-11-08T19:32:13.863Z,1.83
2022-11-08T19:34:52.253Z,2.43
2022-11-08T19:37:26.151Z,2.03
2022-11-08T19:40:05.351Z,1.80
2022-11-08T19:42:37.186Z,1.67
2022-11-08T19:45:11.300Z,2.00
2022-11-08T19:47:44.774Z,1.73
2022-11-08T19:50:25.076Z,2.17
2022-11-08T19:53:06.691Z,1.63
2022-11-08T19:55:40.830Z,1.50
2022-11-08T19:58:12.011Z,1.90
2022-11-08T20:00:43.853Z,1.70
2022-11-08T20:03:17.540Z,2.10
2022-11-08T20:05:58.616Z,1.80
2022-11-08T20:08:33.226Z,1.60
2022-11-08T20:11:16.664Z,1.60
2022-11-08T20:13:51.634Z,2.13
2022-11-08T20:16:26.888Z,1.77
2022-11-08T20:19:08.296Z,1.77
2022-11-08T20:21:42.541Z,1.70
2022-11-08T20:24:14.907Z,1.70
2022-11-08T20:26:49.124Z,1.70
2022-11-08T20:29:20.268Z,2.10
2022-11-08T20:31:54.694Z,1.67
2022-11-08T20:34:25.855Z,1.60
2022-11-08T20:36:57.340Z,1.53
2022-11-08T20:39:34.647Z,1.93
2022-11-08T20:42:07.997Z,1.70
2022-11-08T20:44:42.202Z,1.57
2022-11-08T20:47:13.823Z,1.97
2022-11-08T20:49:47.055Z,2.00
2022-11-08T20:52:25.068Z,1.70
2022-11-08T20:54:59.548Z,1.97
2022-11-08T20:57:32.629Z,1.50
2022-11-08T21:00:13.267Z,1.53
2022-11-08T21:02:45.026Z,2.13
2022-11-08T21:05:28.433Z,1.70
2022-11-08T21:08:56.409Z,1.57
2022-11-08T21:10:57.256Z,2.03
2022-11-08T21:13:35.498Z,1.70
2022-11-08T21:16:28.123Z,2.00
2022-11-08T21:19:01.750Z,1.73
2022-11-08T21:21:33.959Z,2.10
2022-11-08T21:24:08.894Z,1.67
2022-11-08T21:26:41.203Z,1.80
2022-11-08T21:29:14.443Z,2.17
2022-11-08T21:31:48.204Z,2.10
2022-11-08T21:34:21.710Z,1.93
2022-11-08T21:36:53.872Z,2.10
2022-11-08T21:39:25.873Z,2.57
2022-11-08T21:41:57.363Z,2.23
2022-11-08T21:44:32.669Z,1.57
2022-11-08T21:47:04.553Z,2.83
2022-11-08T21:49:36.465Z,1.63
2022-11-08T21:52:07.992Z,2.00
2022-11-08T21:54:42.791Z,2.30
2022-11-08T21:57:20.933Z,1.60
2022-11-08T21:59:55.394Z,1.83
2022-11-08T22:02:26.608Z,1.80
2022-11-08T22:04:58.738Z,1.83
2022-11-08T22:07:34.628Z,2.03
2022-11-08T22:10:06.545Z,1.93
2022-11-08T22:12:38.694Z,1.70
2022-11-08T22:15:14.646Z,2.00
2022-11-08T22:18:14.298Z,1.87
2022-11-08T22:21:01.455Z,2.20
2022-11-08T22:23:35.859Z,1.87
2022-11-08T22:26:08.129Z,2.00
2022-11-08T22:28:39.194Z,1.90
2022-11-08T22:31:16.080Z,1.83
2022-11-08T22:33:50.300Z,1.87
2022-11-08T22:36:22.012Z,2.03
2022-11-08T22:38:54.526Z,1.73
2022-11-08T22:41:26.713Z,2.20
2022-11-08T22:43:58.113Z,2.13
2022-11-08T22:46:31.222Z,1.97
2022-11-08T22:49:04.461Z,1.80
2022-11-08T22:51:35.760Z,1.53
2022-11-08T22:54:08.533Z,1.70
2022-11-08T22:56:41.186Z,2.03
2022-11-08T22:59:13.813Z,2.10
2022-11-08T23:01:48.450Z,2.00
2022-11-08T23:04:19.615Z,1.97
2022-11-08T23:06:51.902Z,1.80
2022-11-08T23:09:23.506Z,1.90
2022-11-08T23:12:11.310Z,2.13
2022-11-08T23:15:01.381Z,2.30
2022-11-08T23:17:34.646Z,2.30
2022-11-08T23:20:22.420Z,2.20
2022-11-08T23:23:12.390Z,2.33
2022-11-08T23:25:43.411Z,2.17
2022-11-08T23:28:30.844Z,1.90
2022-11-08T23:31:27.804Z,2.20
2022-11-08T23:34:03.601Z,2.10
2022-11-08T23:36:40.202Z,1.83
2022-11-08T23:39:23.118Z,2.17
2022-11-08T23:42:12.847Z,2.00
2022-11-08T23:44:43.985Z,2.13
2022-11-08T23:47:15.795Z,1.90
2022-11-08T23:49:54.856Z,1.77
2022-11-08T23:52:27.870Z,2.20
2022-11-08T23:54:58.888Z,2.20
2022-11-08T23:57:30.438Z,1.83
